Latest Coastal Weather Observations for Darwin Harbour

IDD60701

Issued at 2:45 pm CST Friday 29 August 2014 (issued every 10 minutes, with the page automatically refreshed every 10 minutes)

About coastal observations | Map of coastal stations | Coastal observations for NT | Marine services | Other Formats
Station Details ID: 014072 Name: DARWIN NTC AWS Lat: -12.47 Lon: 130.85 Height: 0.0 m
Data from the previous 72 hours. | See also: Recent months for locations in Northern Territory
Date/Time
CST
Temp

°C
Wind Pressure Rain
since 9am
mm
Weather Cloud Vis
km
Sea
Height
m
Swell
Dir
 
Speed
knots
Gust
knots
hPa Trend Height
m
Period
s
Dir
29/02:30pm 28.9 WSW 3 5 1012.1 - - - - - - - - -
29/02:00pm 28.2 WSW 5 8 1012.4 - - - - - - - - -
29/01:30pm 27.6 WSW 4 6 1012.6 - - - - - - - - -
29/01:00pm 28.7 ESE 5 7 1013.2 - - - - - - - - -
29/12:30pm 27.5 SE 7 9 1013.9 - - - - - - - - -
29/12:00pm 28.5 ESE 7 13 1014.2 - - - - - - - - -
29/11:30am 25.7 SSW 3 6 1014.7 - - - - - - - - -
29/11:00am 24.8 SSW 3 4 1015.1 - - - - - - - - -
29/09:00am 23.2 ENE 2 4 1015.3 - - - - - - - - -
29/08:30am 22.5 ENE 3 5 1015.1 - - - - - - - - -
29/08:00am 22.2 ENE 2 4 1015.0 - - - - - - - - -
29/07:30am 21.0 ENE 3 5 1014.6 - - - - - - - - -
29/07:00am 22.0 E 3 5 1014.4 - - - - - - - - -
29/06:30am 21.8 SSE 2 3 1014.2 - - - - - - - - -
29/06:00am 21.5 S 1 2 1013.7 - - - - - - - - -
29/05:30am 21.4 SE 4 5 1013.5 - - - - - - - - -
29/05:00am 21.6 ESE 2 4 1013.3 - - - - - - - - -
29/04:30am 21.2 ENE 1 3 1013.2 - - - - - - - - -
29/04:00am 21.3 ENE 2 4 1013.0 - - - - - - - - -
29/03:30am 21.6 E 1 3 1013.1 - - - - - - - - -
29/03:00am 21.4 ENE 3 4 1013.1 - - - - - - - - -
29/02:30am 21.8 ENE 3 5 1013.1 - - - - - - - - -
29/02:00am 22.1 CALM 0 2 1012.9 - - - - - - - - -
29/01:30am 22.5 NNE 1 2 1013.1 - - - - - - - - -
29/01:00am 23.2 CALM 0 1 1013.3 - - - - - - - - -
29/12:30am 23.3 SSW 1 2 1013.6 - - - - - - - - -
29/12:00am 23.5 WSW 1 3 1013.8 - - - - - - - - -
 
Date/Time
CST
Temp

°C
Wind Pressure Rain
since 9am
mm
Weather Cloud Vis
km
Sea
Height
m
Swell
Dir
 
Speed
knots
Gust
knots
hPa Trend Height
m
Period
s
Dir
28/11:30pm 23.6 WSW 2 4 1013.8 - - - - - - - - -
28/11:00pm 23.6 W 2 4 1013.8 - - - - - - - - -
28/10:30pm 24.2 WSW 2 4 1013.7 - - - - - - - - -
28/10:00pm 24.0 WSW 5 6 1013.6 - - - - - - - - -
28/09:30pm 24.3 W 3 5 1013.4 - - - - - - - - -
28/09:00pm 24.6 W 3 4 1013.2 - - - - - - - - -
28/08:30pm 24.7 W 3 4 1013.0 - - - - - - - - -
28/08:00pm 25.1 WNW 3 5 1012.9 - - - - - - - - -
28/07:30pm 25.3 WNW 6 8 1012.5 - - - - - - - - -
28/07:00pm 27.0 NNW 4 9 1011.9 - - - - - - - - -
28/06:30pm 27.4 N 5 10 1011.4 - - - - - - - - -
28/06:00pm 28.2 N 5 9 1011.1 - - - - - - - - -
28/05:30pm 28.9 N 5 10 1011.0 - - - - - - - - -
28/05:00pm 28.4 N 7 12 1010.8 - - - - - - - - -
28/04:30pm 28.8 N 7 12 1010.7 - - - - - - - - -
28/04:00pm 29.4 N 6 10 1010.8 - - - - - - - - -
28/10:00am 24.4 ESE 7 12 1015.1 - - - - - - - - -
28/09:30am 23.1 SE 5 8 1015.1 - - - - - - - - -
28/09:00am 22.9 ESE 4 6 1014.8 - - - - - - - - -
28/08:30am 22.0 SE 5 6 1014.8 - - - - - - - - -
28/08:00am 21.9 SSE 4 6 1014.6 - - - - - - - - -
28/07:30am 22.1 SE 4 7 1014.3 - - - - - - - - -
28/07:00am 22.0 ESE 3 5 1013.9 - - - - - - - - -
28/06:30am 22.0 SSE 3 5 1013.5 - - - - - - - - -
28/06:00am 22.1 SE 4 5 1013.3 - - - - - - - - -
28/05:30am 22.1 ESE 1 4 1013.1 - - - - - - - - -
28/05:00am 22.0 E 2 4 1013.0 - - - - - - - - -
28/04:30am 21.6 NE 1 4 1012.8 - - - - - - - - -
28/04:00am 21.4 NE 1 3 1012.8 - - - - - - - - -
28/03:30am 21.7 ENE 1 2 1012.9 - - - - - - - - -
28/03:00am 22.8 SE 3 6 1013.2 - - - - - - - - -
28/02:30am 22.8 SE 4 5 1013.2 - - - - - - - - -
28/02:00am 22.6 E 3 5 1013.3 - - - - - - - - -
28/01:30am 23.3 SSE 3 5 1013.6 - - - - - - - - -
28/01:00am 23.6 SSE 2 4 1013.8 - - - - - - - - -
28/12:30am 23.7 S 2 3 1013.9 - - - - - - - - -
28/12:00am 23.7 S 2 4 1013.9 - - - - - - - - -
 
Date/Time
CST
Temp

°C
Wind Pressure Rain
since 9am
mm
Weather Cloud Vis
km
Sea
Height
m
Swell
Dir
 
Speed
knots
Gust
knots
hPa Trend Height
m
Period
s
Dir
27/11:30pm 23.9 SSW 3 4 1013.8 - - - - - - - - -
27/11:00pm 24.3 WSW 1 3 1013.7 - - - - - - - - -
27/10:30pm 24.3 WSW 2 3 1013.6 - - - - - - - - -
27/10:00pm 24.2 WSW 3 4 1013.5 - - - - - - - - -
27/09:30pm 24.4 WSW 3 7 1013.3 - - - - - - - - -
27/09:00pm 25.5 WSW 5 7 1012.9 - - - - - - - - -
27/08:30pm 25.7 WSW 5 8 1012.5 - - - - - - - - -
27/08:00pm 26.5 NE 1 2 1012.0 - - - - - - - - -
27/07:30pm 27.0 NE 3 5 1011.6 - - - - - - - - -
27/07:00pm 27.4 NNE 4 6 1011.0 - - - - - - - - -
27/06:30pm 27.8 N 4 8 1010.6 - - - - - - - - -
27/06:00pm 27.8 N 5 10 1010.4 - - - - - - - - -
27/05:30pm 28.0 N 7 10 1010.3 - - - - - - - - -
27/05:00pm 28.4 NNW 7 11 1010.1 - - - - - - - - -
27/04:30pm 28.1 NW 7 12 1010.1 - - - - - - - - -
27/04:00pm 28.3 SE 4 7 1010.0 - - - - - - - - -
27/03:30pm 31.0 E 3 6 1010.0 - - - - - - - - -
27/09:30am 22.8 E 4 7 1014.7 - - - - - - - - -
27/09:00am 22.8 ENE 2 5 1014.5 - - - - - - - - -
27/08:30am 22.0 ENE 4 6 1014.1 - - - - - - - - -
27/08:00am 21.4 ENE 2 5 1013.9 - - - - - - - - -
27/07:30am 21.2 ENE 1 4 1013.5 - - - - - - - - -
27/07:00am 21.4 E 5 11 1013.1 - - - - - - - - -
27/06:30am 22.6 E 1 2 1012.4 - - - - - - - - -
27/06:00am 23.5 N 1 2 1012.1 - - - - - - - - -
27/05:30am 23.0 N 5 7 1011.9 - - - - - - - - -
27/05:00am 21.7 NNE 7 12 1011.8 - - - - - - - - -
27/04:30am 20.8 NE 4 8 1012.0 - - - - - - - - -
27/04:00am 20.8 ENE 5 9 1011.9 - - - - - - - - -
27/03:30am 22.3 ENE 4 8 1011.8 - - - - - - - - -
27/03:00am 22.4 ESE 4 5 1011.8 - - - - - - - - -
27/02:30am 21.7 ENE 4 6 1012.2 - - - - - - - - -
27/02:00am 23.2 SSW 2 4 1012.1 - - - - - - - - -
27/01:30am 23.2 SSW 3 5 1012.2 - - - - - - - - -
27/01:00am 23.8 WSW 4 6 1012.4 - - - - - - - - -
27/12:30am 23.8 W 2 3 1012.5 - - - - - - - - -
27/12:00am 24.2 W 3 5 1012.6 - - - - - - - - -
 
Date/Time
CST
Temp

°C
Wind Pressure Rain
since 9am
mm
Weather Cloud Vis
km
Sea
Height
m
Swell
Dir
 
Speed
knots
Gust
knots
hPa Trend Height
m
Period
s
Dir
26/11:30pm 23.9 W 3 5 1012.7 - - - - - - - - -
26/11:00pm 24.0 WSW 5 7 1012.9 - - - - - - - - -
26/10:30pm 24.3 WSW 5 6 1012.8 - - - - - - - - -
26/10:00pm 24.3 WSW 5 6 1012.7 - - - - - - - - -
26/09:30pm 24.3 WSW 5 7 1012.6 - - - - - - - - -
26/09:00pm 24.5 WSW 6 7 1012.4 - - - - - - - - -
26/08:30pm 24.8 W 6 8 1012.0 - - - - - - - - -
26/08:00pm 25.4 W 6 9 1011.8 - - - - - - - - -
26/07:30pm 26.3 W 7 10 1011.3 - - - - - - - - -
26/07:00pm 27.1 N 7 10 1010.7 - - - - - - - - -
26/06:30pm 27.7 N 7 11 1010.3 - - - - - - - - -
26/06:00pm 28.8 N 5 8 1010.1 - - - - - - - - -
26/05:30pm 29.0 NNW 5 9 1010.1 - - - - - - - - -
26/05:00pm 29.2 WNW 5 9 1010.1 - - - - - - - - -
26/04:30pm 29.0 WNW 7 10 1010.2 - - - - - - - - -
26/04:00pm 28.7 WNW 5 9 1010.4 - - - - - - - - -
26/03:30pm 30.3 ESE 4 7 1010.8 - - - - - - - - -
26/03:00pm 30.1 ESE 6 8 1010.9 - - - - - - - - -

Other Formats:

Comma delimited format used in spreadsheet applications
http://www.bom.gov.au/fwo/IDD60701/IDD60701.95122.axf

JavaScript Object Notation format (JSON) in row-major order
http://www.bom.gov.au/fwo/IDD60701/IDD60701.95122.json